Impacts METAR Board
IDs:

KDTW - Detroit Metro/Wayne, MI, US

Updated at: 0300 UTC 10 Dec 2018
Potential Impact None Slight Moderate High
Time 09/15Z 09/16Z 09/17Z 09/18Z 09/19Z 09/20Z 09/21Z 09/22Z 09/23Z 10/00Z 10/01Z 10/02Z 10/03Z
Temp26 29 32 34 35 36 36 33 30 29 28 27 26
Dewpt18 19 19 18 18 17 17 17 18 18 18 18 18
Altim30.40 30.38 30.34 30.32 30.30 30.29 30.27 30.26 30.26 30.26 30.26 30.26 30.26
VIS7 9 10 10 10 10 10 10 10 10 10 10 7
CIG-- -- -- -- -- -- -- -- -- -- -- -- --
CoverFEWFEWFEWFEWFEWFEWFEWFEWFEWCLRCLRCLRCLR
FltCatVFRVFRVFRVFRVFRVFRVFRVFRVFRVFRVFRVFRVFR
WX--------------------------
WDir2401902900002802803203303403400
WSpd3 3 5 4 5 4 4 4 5 6 4 5 0
WGst-- -- -- -- -- -- -- -- -- -- -- -- --
Raw hourly METARs
KDTW 091453Z 24003KT 7SM FEW250 M03/M08 A3040 RMK AO2 SLP305 I3000 T10331078 55004
KDTW 091553Z 19003KT 9SM FEW250 M02/M07 A3038 RMK AO2 SLP297 T10171072
KDTW 091653Z 29005KT 10SM FEW250 00/M07 A3034 RMK AO2 SLP283 T00001072
KDTW 091753Z VRB04KT 10SM FEW250 01/M08 A3032 RMK AO2 SLP274 I6000 T00111078 10011 21078 58029
KDTW 091853Z VRB05KT 10SM FEW250 02/M08 A3030 RMK AO2 SLP270 T00171078
KDTW 091953Z VRB04KT 10SM FEW250 02/M08 A3029 RMK AO2 SLP264 T00221083
KDTW 092053Z 28004KT 10SM FEW250 02/M08 A3027 RMK AO2 SLP258 T00221083 58016
KDTW 092153Z 28004KT 10SM FEW250 01/M08 A3026 RMK AO2 SLP256 T00061083
KDTW 092253Z 32005KT 10SM FEW250 M01/M08 A3026 RMK AO2 SLP256 T10111078
KDTW 092353Z 33006KT 10SM CLR M02/M08 A3026 RMK AO2 SLP257 T10171078 10022 21017 55002
KDTW 100053Z 34004KT 10SM CLR M02/M08 A3026 RMK AO2 SLP256 T10221078
KDTW 100153Z 34005KT 10SM CLR M03/M08 A3026 RMK AO2 SLP257 T10281078
KDTW 100253Z 00000KT 7SM CLR M03/M08 A3026 RMK AO2 SLP255 T10331078 58002



Page loaded:  03:51 UTC  |   07:51 PM Pacific  |   08:51 PM Mountain  |   09:51 PM Central  |   10:51 PM Eastern

 

ADVISORIES

FORECASTS

FORECASTS

OBSERVATIONS

USER TOOLS

ABOUT US